Language: 


Des rapports , des résumés tant et plus, au choix de chacun....


Données Historiques de Météogheer
Journalier Rapport pour Janvier 9, 2017 Unitée:  Les deux    Impériale   Métrique
Suivant Jour »
Journalier Hebdomadaire Mensuel Annuel Sur mesure
  Max: Min: Moyenne:
Température: 46.6 °F /  8.1 °C 32 °F /  0.0 °C 44.6 °F /  7 °C
Point de rosée: 46 °F /  7.8 °C 41.9 °F /  5.5 °C 43.9 °F /  6.6 °C
Humidité: 98% 0% 97%
Vent: 13.6mph /  21.9km/h - 5mph /  8km/h
Rafales: 16.1mph /  25.9km/h - -
Vent- - SSW
Pression: 30.4 in /  1030.0 hPa 0 in /  0.0 hPa -
Pluie: 0.26 in /  6.6 mm    
Historical Graphs
 
 
Données tabulaires pour Janvier 9, 2017
Heure Température Point de rosée Pression Vent Vent Rafales Humidité Pluie Taux (Horaire) Conditions
00:01 43.2 °F /  6.2 °C 42.6 °F /  5.9 °C 30.4in /  1030.0hPa Calm   4.7mph /  7.6km/h 98% 0in /  0.0mm
00:06 43.2 °F /  6.2 °C 42.6 °F /  5.9 °C 30.4in /  1030.0hPa SW 2mph /  3.2km/h 4.7mph /  7.6km/h 98% 0in /  0.0mm
00:11 43.2 °F /  6.2 °C 42.6 °F /  5.9 °C 30.4in /  1029.0hPa Calm   3.1mph /  5.0km/h 98% 0in /  0.0mm
00:16 43.2 °F /  6.2 °C 42.6 °F /  5.9 °C 30.4in /  1029.0hPa South 3.8mph /  6.1km/h 4.5mph /  7.2km/h 98% 0in /  0.0mm
00:21 43.2 °F /  6.2 °C 42.6 °F /  5.9 °C 30.4in /  1029.0hPa South 2mph /  3.2km/h 4.7mph /  7.6km/h 98% 0in /  0.0mm
00:26 43.2 °F /  6.2 °C 42.6 °F /  5.9 °C 30.4in /  1029.0hPa South 2.2mph /  3.5km/h 4.7mph /  7.6km/h 98% 0in /  0.0mm
00:31 43.2 °F /  6.2 °C 42.6 °F /  5.9 °C 30.4in /  1029.0hPa Calm   4.7mph /  7.6km/h 98% 0in /  0.0mm
00:36 43.2 °F /  6.2 °C 42.6 °F /  5.9 °C 30.4in /  1029.0hPa SSE 1.1mph /  1.8km/h 4mph /  6.4km/h 98% 0in /  0.0mm
00:41 43.2 °F /  6.2 °C 42.6 °F /  5.9 °C 30.4in /  1029.0hPa Calm   3.4mph /  5.5km/h 98% 0in /  0.0mm
00:46 43.2 °F /  6.2 °C 42.6 °F /  5.9 °C 30.4in /  1029.0hPa Calm   1.1mph /  1.8km/h 98% 0in /  0.0mm
00:51 43.2 °F /  6.2 °C 42.6 °F /  5.9 °C 30.4in /  1029.0hPa Calm   2.2mph /  3.5km/h 98% 0in /  0.0mm
01:01 43 °F /  6.1 °C 42.4 °F /  5.8 °C 30.4in /  1029.0hPa Calm   1.6mph /  2.6km/h 98% 0in /  0.0mm
01:11 43 °F /  6.1 °C 42.4 °F /  5.8 °C 30.4in /  1029.0hPa SSW 2.5mph /  4.0km/h 5.6mph /  9.0km/h 98% 0in /  0.0mm
01:16 43 °F /  6.1 °C 42.4 °F /  5.8 °C 30.4in /  1029.0hPa SSW 2.9mph /  4.7km/h 5.4mph /  8.7km/h 98% 0in /  0.0mm
01:21 43.2 °F /  6.2 °C 42.6 °F /  5.9 °C 30.4in /  1029.0hPa SSW 2.2mph /  3.5km/h 4mph /  6.4km/h 98% 0in /  0.0mm
01:26 43.2 °F /  6.2 °C 42.6 °F /  5.9 °C 30.4in /  1029.0hPa South 0.9mph /  1.4km/h 4mph /  6.4km/h 98% 0in /  0.0mm
01:31 43.2 °F /  6.2 °C 42.6 °F /  5.9 °C 30.4in /  1029.0hPa SSW 3.6mph /  5.8km/h 4.3mph /  6.9km/h 98% 0in /  0.0mm
01:36 43.2 °F /  6.2 °C 42.6 °F /  5.9 °C 30.4in /  1029.0hPa Calm   4.3mph /  6.9km/h 98% 0in /  0.0mm
01:41 43.3 °F /  6.3 °C 42.8 °F /  6.0 °C 30.4in /  1029.0hPa Calm   4mph /  6.4km/h 98% 0in /  0.0mm
01:46 43.3 °F /  6.3 °C 42.8 °F /  6.0 °C 30.4in /  1029.0hPa South 4mph /  6.4km/h 4.9mph /  7.9km/h 98% 0in /  0.0mm
01:51 43.3 °F /  6.3 °C 42.8 °F /  6.0 °C 30.4in /  1029.0hPa South 3.6mph /  5.8km/h 4.9mph /  7.9km/h 98% 0in /  0.0mm
01:56 43.3 °F /  6.3 °C 42.8 °F /  6.0 °C 30.4in /  1029.0hPa South 4mph /  6.4km/h 5.4mph /  8.7km/h 98% 0in /  0.0mm
02:02 32 °F /  0.0 °C 42.8 °F /  6.0 °C 0in /  0.0hPa SSW 4mph /  6.4km/h 5.8mph /  9.3km/h 0% 0in /  0.0mm
02:07 43.3 °F /  6.3 °C 42.8 °F /  6.0 °C 30.4in /  1029.0hPa SSW 3.4mph /  5.5km/h 5.8mph /  9.3km/h 98% 0in /  0.0mm
02:12 43.3 °F /  6.3 °C 42.8 °F /  6.0 °C 30.4in /  1029.0hPa SSW 2.7mph /  4.3km/h 5.4mph /  8.7km/h 98% 0in /  0.0mm
02:17 43.3 °F /  6.3 °C 42.8 °F /  6.0 °C 30.4in /  1029.0hPa SSW 3.4mph /  5.5km/h 5.4mph /  8.7km/h 98% 0in /  0.0mm
02:22 43.3 °F /  6.3 °C 42.8 °F /  6.0 °C 30.4in /  1028.0hPa South 4.7mph /  7.6km/h 4.9mph /  7.9km/h 98% 0in /  0.0mm
02:27 43.5 °F /  6.4 °C 43 °F /  6.1 °C 30.4in /  1028.0hPa South 5.6mph /  9.0km/h 5.8mph /  9.3km/h 98% 0in /  0.0mm
02:32 43.5 °F /  6.4 °C 43 °F /  6.1 °C 30.4in /  1028.0hPa Calm   6.5mph /  10.5km/h 98% 0in /  0.0mm
02:43 43.5 °F /  6.4 °C 43 °F /  6.1 °C 30.4in /  1029.0hPa SSW 4mph /  6.4km/h 5.6mph /  9.0km/h 98% 0in /  0.0mm
02:48 43.5 °F /  6.4 °C 43 °F /  6.1 °C 30.4in /  1029.0hPa South 3.8mph /  6.1km/h 5.6mph /  9.0km/h 98% 0in /  0.0mm
02:53 43.5 °F /  6.4 °C 43 °F /  6.1 °C 30.4in /  1028.0hPa South 3.1mph /  5.0km/h 5.6mph /  9.0km/h 98% 0in /  0.0mm
02:58 43.5 °F /  6.4 °C 43 °F /  6.1 °C 30.4in /  1028.0hPa South 3.8mph /  6.1km/h 4.9mph /  7.9km/h 98% 0in /  0.0mm
03:03 43.5 °F /  6.4 °C 43 °F /  6.1 °C 30.4in /  1028.0hPa South 2.5mph /  4.0km/h 5.6mph /  9.0km/h 98% 0in /  0.0mm
03:08 43.5 °F /  6.4 °C 43 °F /  6.1 °C 30.4in /  1028.0hPa SSW 3.6mph /  5.8km/h 5.6mph /  9.0km/h 98% 0in /  0.0mm
03:13 43.5 °F /  6.4 °C 43 °F /  6.1 °C 30.4in /  1028.0hPa SSW 3.8mph /  6.1km/h 3.8mph /  6.1km/h 98% 0in /  0.0mm
03:18 43.5 °F /  6.4 °C 43 °F /  6.1 °C 30.4in /  1028.0hPa SW 3.8mph /  6.1km/h 5.6mph /  9.0km/h 98% 0in /  0.0mm
03:23 43.5 °F /  6.4 °C 43 °F /  6.1 °C 30.3in /  1027.0hPa SSW 5.4mph /  8.7km/h 5.6mph /  9.0km/h 98% 0in /  0.0mm
03:28 43.5 °F /  6.4 °C 43 °F /  6.1 °C 30.3in /  1027.0hPa SSW 2.2mph /  3.5km/h 5.8mph /  9.3km/h 98% 0in /  0.0mm
03:37 43.5 °F /  6.4 °C 43 °F /  6.1 °C 30.4in /  1028.0hPa Calm   5.4mph /  8.7km/h 98% 0in /  0.0mm
03:42 43.5 °F /  6.4 °C 43 °F /  6.1 °C 30.4in /  1028.0hPa SW 5.4mph /  8.7km/h 5.4mph /  8.7km/h 98% 0in /  0.0mm
03:47 43.5 °F /  6.4 °C 43.2 °F /  6.2 °C 30.4in /  1028.0hPa Calm   5.4mph /  8.7km/h 98% 0in /  0.0mm
03:52 43.5 °F /  6.4 °C 43.2 °F /  6.2 °C 30.3in /  1027.0hPa Calm   4.9mph /  7.9km/h 98% 0in /  0.0mm
03:57 43.5 °F /  6.4 °C 43.2 °F /  6.2 °C 30.3in /  1027.0hPa SW 3.4mph /  5.5km/h 3.4mph /  5.5km/h 98% 0in /  0.0mm
04:02 43.5 °F /  6.4 °C 43.2 °F /  6.2 °C 30.3in /  1027.0hPa Calm   3.4mph /  5.5km/h 98% 0in /  0.0mm
04:07 43.5 °F /  6.4 °C 43.2 °F /  6.2 °C 30.3in /  1026.0hPa SW 3.6mph /  5.8km/h 3.6mph /  5.8km/h 98% 0in /  0.0mm
04:12 43.5 °F /  6.4 °C 43.2 °F /  6.2 °C 30.3in /  1026.0hPa Calm   4.3mph /  6.9km/h 98% 0in /  0.0mm
04:17 43.5 °F /  6.4 °C 43.2 °F /  6.2 °C 30.3in /  1026.0hPa Calm   4.3mph /  6.9km/h 98% 0in /  0.0mm
04:22 43.5 °F /  6.4 °C 43.2 °F /  6.2 °C 30.4in /  1028.0hPa South 3.4mph /  5.5km/h 3.4mph /  5.5km/h 98% 0in /  0.0mm
04:27 43.5 °F /  6.4 °C 43.2 °F /  6.2 °C 30.4in /  1028.0hPa SSW 5.6mph /  9.0km/h 6.5mph /  10.5km/h 98% 0in /  0.0mm
04:32 43.5 °F /  6.4 °C 43.2 °F /  6.2 °C 30.4in /  1028.0hPa South 1.3mph /  2.1km/h 6.5mph /  10.5km/h 98% 0in /  0.0mm
04:37 43.5 °F /  6.4 °C 43.2 °F /  6.2 °C 30.3in /  1027.0hPa South 3.4mph /  5.5km/h 4.3mph /  6.9km/h 98% 0in /  0.0mm
04:42 43.5 °F /  6.4 °C 43.2 °F /  6.2 °C 30.3in /  1027.0hPa Calm   4.3mph /  6.9km/h 98% 0in /  0.0mm
04:47 43.5 °F /  6.4 °C 43 °F /  6.1 °C 30.3in /  1027.0hPa Calm   4.3mph /  6.9km/h 98% 0in /  0.0mm
04:52 43.5 °F /  6.4 °C 43 °F /  6.1 °C 30.3in /  1027.0hPa Calm   4.3mph /  6.9km/h 98% 0in /  0.0mm
04:57 43.5 °F /  6.4 °C 43 °F /  6.1 °C 30.3in /  1027.0hPa WSW 4.3mph /  6.9km/h 4.3mph /  6.9km/h 98% 0in /  0.0mm
05:02 43.5 °F /  6.4 °C 43 °F /  6.1 °C 30.3in /  1027.0hPa SW 3.1mph /  5.0km/h 5.8mph /  9.3km/h 98% 0in /  0.0mm
05:07 43.5 °F /  6.4 °C 43 °F /  6.1 °C 30.3in /  1027.0hPa Calm   5.8mph /  9.3km/h 98% 0in /  0.0mm
05:12 43.5 °F /  6.4 °C 43 °F /  6.1 °C 30.3in /  1027.0hPa SW 3.4mph /  5.5km/h 4.7mph /  7.6km/h 98% 0in /  0.0mm
05:17 43.5 °F /  6.4 °C 43 °F /  6.1 °C 30.3in /  1027.0hPa SW 4mph /  6.4km/h 5.6mph /  9.0km/h 98% 0in /  0.0mm
05:22 43.5 °F /  6.4 °C 43 °F /  6.1 °C 30.3in /  1026.0hPa Calm   5.6mph /  9.0km/h 98% 0in /  0.0mm
05:27 43.5 °F /  6.4 °C 43.2 °F /  6.2 °C 30.3in /  1026.0hPa Calm   4.3mph /  6.9km/h 98% 0in /  0.0mm
05:32 43.5 °F /  6.4 °C 43.2 °F /  6.2 °C 30.3in /  1026.0hPa Calm   3.6mph /  5.8km/h 98% 0in /  0.0mm
05:37 43.5 °F /  6.4 °C 43.2 °F /  6.2 °C 30.3in /  1026.0hPa Calm   3.6mph /  5.8km/h 98% 0in /  0.0mm
05:42 43.5 °F /  6.4 °C 43 °F /  6.1 °C 30.3in /  1026.0hPa Calm     98% 0in /  0.0mm
05:47 43.5 °F /  6.4 °C 43 °F /  6.1 °C 30.3in /  1026.0hPa Calm     98% 0in /  0.0mm
05:52 43.5 °F /  6.4 °C 43 °F /  6.1 °C 30.3in /  1026.0hPa Calm     98% 0in /  0.0mm
05:57 43.5 °F /  6.4 °C 43 °F /  6.1 °C 30.3in /  1026.0hPa Calm   4mph /  6.4km/h 98% 0in /  0.0mm
06:02 43.5 °F /  6.4 °C 43 °F /  6.1 °C 30.3in /  1026.0hPa Calm   4mph /  6.4km/h 98% 0in /  0.0mm
06:07 43.5 °F /  6.4 °C 43 °F /  6.1 °C 30.3in /  1026.0hPa Calm   2.5mph /  4.0km/h 98% 0in /  0.0mm
06:12 43.3 °F /  6.3 °C 42.8 °F /  6.0 °C 30.3in /  1026.0hPa Calm   2.5mph /  4.0km/h 98% 0in /  0.0mm
06:17 43.3 °F /  6.3 °C 42.8 °F /  6.0 °C 30.3in /  1026.0hPa Calm     98% 0in /  0.0mm
06:22 43.3 °F /  6.3 °C 42.8 °F /  6.0 °C 30.3in /  1026.0hPa South 5.4mph /  8.7km/h 5.6mph /  9.0km/h 98% 0in /  0.0mm
06:27 43.5 °F /  6.4 °C 43 °F /  6.1 °C 30.3in /  1026.0hPa South 4.3mph /  6.9km/h 6.5mph /  10.5km/h 98% 0in /  0.0mm
06:32 43.5 °F /  6.4 °C 43 °F /  6.1 °C 30.3in /  1026.0hPa SSW 5.4mph /  8.7km/h 6.7mph /  10.8km/h 98% 0in /  0.0mm
06:37 43.5 °F /  6.4 °C 43 °F /  6.1 °C 30.3in /  1024.9hPa SSW 3.4mph /  5.5km/h 6.7mph /  10.8km/h 98% 0in /  0.0mm
06:42 43.5 °F /  6.4 °C 43 °F /  6.1 °C 30.3in /  1024.9hPa South 4mph /  6.4km/h 6.3mph /  10.1km/h 98% 0in /  0.0mm
06:47 43.5 °F /  6.4 °C 43 °F /  6.1 °C 30.3in /  1024.9hPa Calm   5.8mph /  9.3km/h 98% 0in /  0.0mm
06:52 43.5 °F /  6.4 °C 43 °F /  6.1 °C 30.3in /  1024.9hPa South 6mph /  9.7km/h 6.3mph /  10.1km/h 98% 0in /  0.0mm
06:57 43.5 °F /  6.4 °C 43 °F /  6.1 °C 30.3in /  1024.9hPa South 2.9mph /  4.7km/h 6.3mph /  10.1km/h 98% 0in /  0.0mm
07:02 43.5 °F /  6.4 °C 43 °F /  6.1 °C 30.3in /  1024.9hPa SSE 5.8mph /  9.3km/h 6.3mph /  10.1km/h 98% 0in /  0.0mm
07:07 43.5 °F /  6.4 °C 43 °F /  6.1 °C 30.3in /  1024.9hPa SSE 4.9mph /  7.9km/h 7.2mph /  11.6km/h 98% 0in /  0.0mm
07:12 43.3 °F /  6.3 °C 42.8 °F /  6.0 °C 30.3in /  1024.9hPa SSE 4mph /  6.4km/h 8.1mph /  13.0km/h 98% 0in /  0.0mm
07:17 43.3 °F /  6.3 °C 42.8 °F /  6.0 °C 30.3in /  1024.9hPa South 5.8mph /  9.3km/h 8.1mph /  13.0km/h 98% 0in /  0.0mm
07:22 43.3 °F /  6.3 °C 42.8 °F /  6.0 °C 30.3in /  1024.9hPa South 4.5mph /  7.2km/h 6mph /  9.7km/h 98% 0in /  0.0mm
07:27 43.2 °F /  6.2 °C 42.6 °F /  5.9 °C 30.3in /  1024.9hPa SSW 5.8mph /  9.3km/h 7.2mph /  11.6km/h 98% 0in /  0.0mm
07:32 43.2 °F /  6.2 °C 42.6 °F /  5.9 °C 30.3in /  1024.9hPa South 4mph /  6.4km/h 7.2mph /  11.6km/h 98% 0in /  0.0mm
07:37 43.2 °F /  6.2 °C 42.6 °F /  5.9 °C 30.3in /  1024.9hPa South 5.8mph /  9.3km/h 7.4mph /  11.9km/h 98% 0in /  0.0mm
07:42 43 °F /  6.1 °C 42.4 °F /  5.8 °C 30.3in /  1024.9hPa South 8.1mph /  13.0km/h 8.1mph /  13.0km/h 98% 0in /  0.0mm
07:47 42.8 °F /  6.0 °C 42.3 °F /  5.7 °C 30.3in /  1024.9hPa South 5.4mph /  8.7km/h 8.1mph /  13.0km/h 98% 0in /  0.0mm
07:52 42.8 °F /  6.0 °C 42.3 °F /  5.7 °C 30.3in /  1024.9hPa South 3.1mph /  5.0km/h 7.8mph /  12.6km/h 98% 0in /  0.0mm
07:57 42.8 °F /  6.0 °C 42.3 °F /  5.7 °C 30.3in /  1024.9hPa SSW 3.4mph /  5.5km/h 10.1mph /  16.3km/h 98% 0in /  0.0mm
08:02 42.8 °F /  6.0 °C 42.3 °F /  5.7 °C 30.3in /  1024.9hPa SSW 4.7mph /  7.6km/h 10.1mph /  16.3km/h 98% 0in /  0.0mm
08:12 42.8 °F /  6.0 °C 42.3 °F /  5.7 °C 30.3in /  1024.9hPa South 4.3mph /  6.9km/h 7.8mph /  12.6km/h 98% 0in /  0.0mm
08:17 42.8 °F /  6.0 °C 42.3 °F /  5.7 °C 30.3in /  1024.9hPa South 6mph /  9.7km/h 7.8mph /  12.6km/h 98% 0in /  0.0mm
08:22 42.8 °F /  6.0 °C 42.3 °F /  5.7 °C 30.2in /  1023.9hPa South 6.5mph /  10.5km/h 7.8mph /  12.6km/h 98% 0in /  0.0mm
08:28 42.8 °F /  6.0 °C 42.3 °F /  5.7 °C 30.2in /  1023.9hPa South 6mph /  9.7km/h 7.8mph /  12.6km/h 98% 0in /  0.0mm
08:29 42.8 °F /  6.0 °C 42.3 °F /  5.7 °C 30.2in /  1023.9hPa SSW 8.1mph /  13.0km/h 8.5mph /  13.7km/h 98% 0in /  0.0mm
08:34 42.8 °F /  6.0 °C 42.3 °F /  5.7 °C 30.2in /  1023.9hPa South 4.3mph /  6.9km/h 8.5mph /  13.7km/h 98% 0in /  0.0mm
08:39 42.8 °F /  6.0 °C 42.3 °F /  5.7 °C 30.3in /  1024.9hPa SSW 3.6mph /  5.8km/h 8.5mph /  13.7km/h 98% 0in /  0.0mm
08:44 42.8 °F /  6.0 °C 42.3 °F /  5.7 °C 30.3in /  1024.9hPa South 6.3mph /  10.1km/h 8.7mph /  14.0km/h 98% 0in /  0.0mm
08:49 42.8 °F /  6.0 °C 42.3 °F /  5.7 °C 30.3in /  1024.9hPa South 6.3mph /  10.1km/h 8.7mph /  14.0km/h 98% 0in /  0.0mm
08:54 42.6 °F /  5.9 °C 42.1 °F /  5.6 °C 30.3in /  1024.9hPa SW 5.4mph /  8.7km/h 8.5mph /  13.7km/h 98% 0in /  0.0mm
08:59 42.6 °F /  5.9 °C 42.1 °F /  5.6 °C 30.3in /  1024.9hPa SSW 4.9mph /  7.9km/h 7.8mph /  12.6km/h 98% 0in /  0.0mm
09:04 42.6 °F /  5.9 °C 42.1 °F /  5.6 °C 30.3in /  1024.9hPa South 5.8mph /  9.3km/h 7.8mph /  12.6km/h 98% 0in /  0.0mm
09:09 42.4 °F /  5.8 °C 41.9 °F /  5.5 °C 30.3in /  1024.9hPa SSW 5.6mph /  9.0km/h 7.6mph /  12.2km/h 98% 0in /  0.0mm
09:14 42.4 °F /  5.8 °C 41.9 °F /  5.5 °C 30.3in /  1024.9hPa South 3.8mph /  6.1km/h 8.5mph /  13.7km/h 98% 0in /  0.0mm
09:19 42.4 °F /  5.8 °C 41.9 °F /  5.5 °C 30.3in /  1024.9hPa South 7.4mph /  11.9km/h 8.5mph /  13.7km/h 98% 0in /  0.0mm
09:24 42.4 °F /  5.8 °C 41.9 °F /  5.5 °C 30.3in /  1024.9hPa SW 6.3mph /  10.1km/h 8.5mph /  13.7km/h 98% 0in /  0.0mm
09:29 42.4 °F /  5.8 °C 41.9 °F /  5.5 °C 30.3in /  1024.9hPa South 5.6mph /  9.0km/h 8.5mph /  13.7km/h 98% 0in /  0.0mm
09:34 42.4 °F /  5.8 °C 41.9 °F /  5.5 °C 30.3in /  1024.9hPa SSW 5.6mph /  9.0km/h 7.8mph /  12.6km/h 98% 0in /  0.0mm
09:39 42.4 °F /  5.8 °C 41.9 °F /  5.5 °C 30.3in /  1024.9hPa South 7.6mph /  12.2km/h 8.1mph /  13.0km/h 98% 0in /  0.0mm
09:44 42.4 °F /  5.8 °C 41.9 °F /  5.5 °C 30.3in /  1024.9hPa South 4mph /  6.4km/h 9.6mph /  15.4km/h 98% 0in /  0.0mm
09:49 42.4 °F /  5.8 °C 41.9 °F /  5.5 °C 30.3in /  1024.9hPa SSW 5.6mph /  9.0km/h 9.8mph /  15.8km/h 98% 0in /  0.0mm
09:54 42.4 °F /  5.8 °C 41.9 °F /  5.5 °C 30.2in /  1023.9hPa SSW 3.4mph /  5.5km/h 9.8mph /  15.8km/h 98% 0in /  0.0mm
09:59 42.6 °F /  5.9 °C 42.1 °F /  5.6 °C 30.2in /  1023.9hPa SSW 1.6mph /  2.6km/h 7.4mph /  11.9km/h 98% 0in /  0.0mm
10:04 42.6 °F /  5.9 °C 42.1 °F /  5.6 °C 30.2in /  1023.9hPa SSW 4.9mph /  7.9km/h 7.2mph /  11.6km/h 98% 0in /  0.0mm
10:09 42.6 °F /  5.9 °C 42.1 °F /  5.6 °C 30.2in /  1023.9hPa SSW 5.8mph /  9.3km/h 7.4mph /  11.9km/h 98% 0in /  0.0mm
10:14 42.6 °F /  5.9 °C 42.1 °F /  5.6 °C 30.2in /  1023.9hPa SW 3.6mph /  5.8km/h 7.4mph /  11.9km/h 98% 0in /  0.0mm
10:19 42.8 °F /  6.0 °C 42.3 °F /  5.7 °C 30.2in /  1023.9hPa Calm   6.3mph /  10.1km/h 98% 0in /  0.0mm
10:24 42.8 °F /  6.0 °C 42.3 °F /  5.7 °C 30.2in /  1023.9hPa SSW 4.7mph /  7.6km/h 6.7mph /  10.8km/h 98% 0in /  0.0mm
10:29 43 °F /  6.1 °C 42.4 °F /  5.8 °C 30.2in /  1023.9hPa South 2.9mph /  4.7km/h 6.7mph /  10.8km/h 98% 0in /  0.0mm
10:34 43.2 °F /  6.2 °C 42.6 °F /  5.9 °C 30.2in /  1023.9hPa SSW 4.7mph /  7.6km/h 5.8mph /  9.3km/h 98% 0in /  0.0mm
10:39 43.2 °F /  6.2 °C 42.6 °F /  5.9 °C 30.2in /  1022.9hPa South 4.3mph /  6.9km/h 6mph /  9.7km/h 98% 0in /  0.0mm
10:44 43.2 °F /  6.2 °C 42.6 °F /  5.9 °C 30.2in /  1022.9hPa SSW 6.3mph /  10.1km/h 6.5mph /  10.5km/h 98% 0in /  0.0mm
10:49 43.2 °F /  6.2 °C 42.6 °F /  5.9 °C 30.2in /  1022.9hPa South 5.4mph /  8.7km/h 8.7mph /  14.0km/h 98% 0in /  0.0mm
10:55 43.3 °F /  6.3 °C 42.8 °F /  6.0 °C 30.2in /  1022.9hPa SSW 4mph /  6.4km/h 8.7mph /  14.0km/h 98% 0in /  0.0mm
11:00 43.3 °F /  6.3 °C 42.8 °F /  6.0 °C 30.2in /  1022.9hPa South 8.1mph /  13.0km/h 8.1mph /  13.0km/h 98% 0in /  0.0mm
11:05 43.5 °F /  6.4 °C 43 °F /  6.1 °C 30.2in /  1022.9hPa SW 3.8mph /  6.1km/h 8.1mph /  13.0km/h 98% 0in /  0.0mm
11:10 43.5 °F /  6.4 °C 43 °F /  6.1 °C 30.2in /  1023.9hPa SSW 3.8mph /  6.1km/h 8.1mph /  13.0km/h 98% 0in /  0.0mm
11:15 43.5 °F /  6.4 °C 43 °F /  6.1 °C 30.2in /  1023.9hPa SW 4.3mph /  6.9km/h 7.4mph /  11.9km/h 98% 0in /  0.0mm
11:20 43.5 °F /  6.4 °C 43.2 °F /  6.2 °C 30.2in /  1023.9hPa SSW 3.1mph /  5.0km/h 8.1mph /  13.0km/h 98% 0in /  0.0mm
11:25 43.9 °F /  6.6 °C 43.3 °F /  6.3 °C 30.2in /  1022.9hPa SSW 4.9mph /  7.9km/h 8.1mph /  13.0km/h 98% 0in /  0.0mm
11:30 43.9 °F /  6.6 °C 43.3 °F /  6.3 °C 30.2in /  1022.9hPa SW 4mph /  6.4km/h 7.4mph /  11.9km/h 98% 0in /  0.0mm
11:35 44.1 °F /  6.7 °C 43.5 °F /  6.4 °C 30.2in /  1022.9hPa South 4mph /  6.4km/h 7.6mph /  12.2km/h 98% 0in /  0.0mm
11:45 44.2 °F /  6.8 °C 43.9 °F /  6.6 °C 30.2in /  1022.9hPa SSW 6.3mph /  10.1km/h 7.2mph /  11.6km/h 98% 0in /  0.0mm
11:50 44.2 °F /  6.8 °C 43.9 °F /  6.6 °C 30.2in /  1022.9hPa South 4.7mph /  7.6km/h 7.2mph /  11.6km/h 98% 0in /  0.0mm
11:55 44.4 °F /  6.9 °C 44.1 °F /  6.7 °C 30.2in /  1022.9hPa SSW 6.3mph /  10.1km/h 6.9mph /  11.1km/h 98% 0in /  0.0mm
12:00 45 °F /  7.2 °C 44.2 °F /  6.8 °C 30.2in /  1022.9hPa South 7.2mph /  11.6km/h 7.2mph /  11.6km/h 98% 0in /  0.0mm
12:05 45.1 °F /  7.3 °C 44.4 °F /  6.9 °C 30.2in /  1022.9hPa South 3.6mph /  5.8km/h 8.5mph /  13.7km/h 98% 0in /  0.0mm
12:10 45.3 °F /  7.4 °C 45 °F /  7.2 °C 30.2in /  1022.9hPa South 7.2mph /  11.6km/h 8.5mph /  13.7km/h 98% 0in /  0.0mm
12:15 45.7 °F /  7.6 °C 45.1 °F /  7.3 °C 30.2in /  1022.9hPa South 3.8mph /  6.1km/h 9.2mph /  14.8km/h 98% 0in /  0.0mm
12:20 45.7 °F /  7.6 °C 45.1 °F /  7.3 °C 30.2in /  1022.9hPa SSW 5.6mph /  9.0km/h 9.8mph /  15.8km/h 98% 0in /  0.0mm
12:25 45.9 °F /  7.7 °C 45.1 °F /  7.3 °C 30.2in /  1021.9hPa SSW 6.5mph /  10.5km/h 9.8mph /  15.8km/h 98% 0in /  0.0mm
12:35 45.9 °F /  7.7 °C 45.1 °F /  7.3 °C 30.2in /  1021.9hPa SW 7.6mph /  12.2km/h 12.1mph /  19.5km/h 98% 0in /  0.0mm
12:40 45.9 °F /  7.7 °C 45.1 °F /  7.3 °C 30.2in /  1021.9hPa SSW 4.9mph /  7.9km/h 12.1mph /  19.5km/h 98% 0in /  0.0mm
12:45 45.9 °F /  7.7 °C 45.1 °F /  7.3 °C 30.2in /  1021.9hPa SSW 7.8mph /  12.6km/h 9.8mph /  15.8km/h 98% 0in /  0.0mm
12:50 45.9 °F /  7.7 °C 45.1 °F /  7.3 °C 30.2in /  1021.9hPa SSW 5.6mph /  9.0km/h 9.8mph /  15.8km/h 98% 0in /  0.0mm
12:55 45.9 °F /  7.7 °C 45.3 °F /  7.4 °C 30.2in /  1021.9hPa SW 6mph /  9.7km/h 8.1mph /  13.0km/h 98% 0in /  0.0mm
13:00 45.9 °F /  7.7 °C 45.1 °F /  7.3 °C 30.2in /  1021.9hPa South 3.4mph /  5.5km/h 8.7mph /  14.0km/h 98% 0in /  0.0mm
13:05 45.9 °F /  7.7 °C 45.1 °F /  7.3 °C 30.2in /  1021.9hPa South 4.3mph /  6.9km/h 8.7mph /  14.0km/h 98% 0in /  0.0mm
13:10 45.9 °F /  7.7 °C 45.3 °F /  7.4 °C 30.2in /  1020.9hPa SSW 7.6mph /  12.2km/h 8.1mph /  13.0km/h 98% 0in /  0.0mm
13:15 45.9 °F /  7.7 °C 45.3 °F /  7.4 °C 30.2in /  1020.9hPa SW 5.4mph /  8.7km/h 10.1mph /  16.3km/h 98% 0in /  0.0mm
13:20 45.9 °F /  7.7 °C 45.3 °F /  7.4 °C 30.2in /  1020.9hPa SSW 5.8mph /  9.3km/h 10.1mph /  16.3km/h 98% 0in /  0.0mm
13:25 45.9 °F /  7.7 °C 45.3 °F /  7.4 °C 30.2in /  1020.9hPa SSW 6mph /  9.7km/h 8.7mph /  14.0km/h 98% 0in /  0.0mm
13:30 45.9 °F /  7.7 °C 45.3 °F /  7.4 °C 30.2in /  1020.9hPa SSW 8.5mph /  13.7km/h 8.7mph /  14.0km/h 98% 0in /  0.0mm
13:35 45.9 °F /  7.7 °C 45.1 °F /  7.3 °C 30.2in /  1020.9hPa South 4.9mph /  7.9km/h 8.5mph /  13.7km/h 98% 0in /  0.0mm
13:40 45.9 °F /  7.7 °C 45.1 °F /  7.3 °C 30.2in /  1020.9hPa SSW 6.3mph /  10.1km/h 8.7mph /  14.0km/h 98% 0in /  0.0mm
13:50 45.9 °F /  7.7 °C 45.3 °F /  7.4 °C 30.2in /  1020.9hPa SW 3.6mph /  5.8km/h 8.5mph /  13.7km/h 98% 0in /  0.0mm
13:55 45.9 °F /  7.7 °C 45.3 °F /  7.4 °C 30.2in /  1020.9hPa SW 8.7mph /  14.0km/h 8.7mph /  14.0km/h 98% 0in /  0.0mm
14:00 45.9 °F /  7.7 °C 45.3 °F /  7.4 °C 30.2in /  1020.9hPa SSW 5.8mph /  9.3km/h 8.7mph /  14.0km/h 98% 0in /  0.0mm
14:05 46 °F /  7.8 °C 45.7 °F /  7.6 °C 30.2in /  1020.9hPa South 8.1mph /  13.0km/h 8.1mph /  13.0km/h 98% 0in /  0.0mm
14:10 46 °F /  7.8 °C 45.7 °F /  7.6 °C 30.2in /  1020.9hPa South 6.5mph /  10.5km/h 8.5mph /  13.7km/h 98% 0in /  0.0mm
14:15 46 °F /  7.8 °C 45.7 °F /  7.6 °C 30.2in /  1020.9hPa South 5.6mph /  9.0km/h 10.3mph /  16.6km/h 98% 0in /  0.0mm
14:18 46.2 °F /  7.9 °C 45.9 °F /  7.7 °C 30.2in /  1020.9hPa SSW 3.6mph /  5.8km/h 10.3mph /  16.6km/h 98% 0in /  0.0mm
14:23 46.2 °F /  7.9 °C 45.9 °F /  7.7 °C 30.1in /  1019.9hPa SW 4.9mph /  7.9km/h 8.5mph /  13.7km/h 98% 0in /  0.0mm
14:28 46.2 °F /  7.9 °C 45.9 °F /  7.7 °C 30.1in /  1019.9hPa SSW 7.4mph /  11.9km/h 9.8mph /  15.8km/h 98% 0in /  0.0mm
14:33 46.2 °F /  7.9 °C 45.9 °F /  7.7 °C 30.1in /  1019.9hPa South 4.3mph /  6.9km/h 9.8mph /  15.8km/h 98% 0in /  0.0mm
14:38 46.2 °F /  7.9 °C 45.9 °F /  7.7 °C 30.1in /  1018.8hPa SSW 6.3mph /  10.1km/h 10.1mph /  16.3km/h 98% 0in /  0.0mm
14:43 46.2 °F /  7.9 °C 45.9 °F /  7.7 °C 30.1in /  1018.8hPa SSW 8.5mph /  13.7km/h 12.3mph /  19.8km/h 98% 0in /  0.0mm
14:48 46.2 °F /  7.9 °C 45.9 °F /  7.7 °C 30.1in /  1018.8hPa SW 6.3mph /  10.1km/h 12.3mph /  19.8km/h 98% 0in /  0.0mm
14:53 46.2 °F /  7.9 °C 45.9 °F /  7.7 °C 30.1in /  1018.8hPa South 5.6mph /  9.0km/h 10.5mph /  16.9km/h 98% 0in /  0.0mm
14:58 46.2 °F /  7.9 °C 45.9 °F /  7.7 °C 30.1in /  1018.8hPa SSW 6mph /  9.7km/h 10.5mph /  16.9km/h 98% 0in /  0.0mm
15:03 46.2 °F /  7.9 °C 45.9 °F /  7.7 °C 30.1in /  1018.8hPa South 5.4mph /  8.7km/h 9.8mph /  15.8km/h 98% 0in /  0.0mm
15:08 46.2 °F /  7.9 °C 45.9 °F /  7.7 °C 30.1in /  1018.8hPa SSW 6mph /  9.7km/h 7.6mph /  12.2km/h 98% 0in /  0.0mm
15:13 46.2 °F /  7.9 °C 45.9 °F /  7.7 °C 30.1in /  1018.8hPa South 4.7mph /  7.6km/h 8.5mph /  13.7km/h 98% 0in /  0.0mm
15:18 46.6 °F /  8.1 °C 45.9 °F /  7.7 °C 30.1in /  1018.8hPa South 6.5mph /  10.5km/h 8.7mph /  14.0km/h 98% 0in /  0.0mm
15:23 46.6 °F /  8.1 °C 45.9 °F /  7.7 °C 30.1in /  1018.8hPa SSW 7.2mph /  11.6km/h 8.7mph /  14.0km/h 98% 0in /  0.0mm
15:28 46.6 °F /  8.1 °C 46 °F /  7.8 °C 30.1in /  1018.8hPa South 8.5mph /  13.7km/h 8.5mph /  13.7km/h 98% 0in /  0.0mm
15:33 46.6 °F /  8.1 °C 46 °F /  7.8 °C 30.1in /  1018.8hPa South 5.8mph /  9.3km/h 10.7mph /  17.2km/h 98% 0in /  0.0mm
15:38 46.6 °F /  8.1 °C 46 °F /  7.8 °C 30.1in /  1018.2hPa South 5.8mph /  9.3km/h 10.7mph /  17.2km/h 98% 0in /  0.0mm
15:43 46.6 °F /  8.1 °C 46 °F /  7.8 °C 30.1in /  1018.2hPa South 7.6mph /  12.2km/h 8.7mph /  14.0km/h 98% 0in /  0.0mm
15:48 46.6 °F /  8.1 °C 45.9 °F /  7.7 °C 30.1in /  1018.2hPa SSW 7.4mph /  11.9km/h 8.5mph /  13.7km/h 98% 0in /  0.0mm
15:53 46.6 °F /  8.1 °C 45.9 °F /  7.7 °C 30.1in /  1018.2hPa SSW 5.6mph /  9.0km/h 8.7mph /  14.0km/h 98% 0in /  0.0mm
15:58 46.6 °F /  8.1 °C 45.9 °F /  7.7 °C 30.1in /  1018.2hPa South 6.5mph /  10.5km/h 10.1mph /  16.3km/h 98% 0in /  0.0mm
16:03 46.6 °F /  8.1 °C 45.9 °F /  7.7 °C 30.1in /  1018.2hPa SSW 4.3mph /  6.9km/h 10.1mph /  16.3km/h 98% 0in /  0.0mm
16:08 46.6 °F /  8.1 °C 45.9 °F /  7.7 °C 30in /  1016.8hPa SSW 6.5mph /  10.5km/h 10.1mph /  16.3km/h 98% 0in /  0.0mm
16:13 46.6 °F /  8.1 °C 45.9 °F /  7.7 °C 30in /  1016.8hPa South 4.9mph /  7.9km/h 12.3mph /  19.8km/h 98% 0in /  0.0mm
16:18 46.6 °F /  8.1 °C 45.9 °F /  7.7 °C 30in /  1016.8hPa SSW 6mph /  9.7km/h 12.3mph /  19.8km/h 98% 0in /  0.0mm
16:23 46.6 °F /  8.1 °C 45.9 °F /  7.7 °C 30in /  1016.8hPa South 13.2mph /  21.2km/h 13.2mph /  21.2km/h 98% 0in /  0.0mm
16:28 46.6 °F /  8.1 °C 45.7 °F /  7.6 °C 30in /  1016.8hPa SSW 5.6mph /  9.0km/h 13.2mph /  21.2km/h 97% 0in /  0.0mm
16:33 46.6 °F /  8.1 °C 45.7 °F /  7.6 °C 30in /  1016.8hPa South 7.4mph /  11.9km/h 13.2mph /  21.2km/h 97% 0in /  0.0mm
16:38 46.6 °F /  8.1 °C 45.7 °F /  7.6 °C 30in /  1016.8hPa SSW 6.5mph /  10.5km/h 10.3mph /  16.6km/h 97% 0in /  0.0mm
16:43 46.6 °F /  8.1 °C 45.7 °F /  7.6 °C 30in /  1016.8hPa South 6.5mph /  10.5km/h 10.3mph /  16.6km/h 97% 0in /  0.0mm
16:48 46.6 °F /  8.1 °C 45.7 °F /  7.6 °C 30in /  1016.8hPa SW 5.4mph /  8.7km/h 10.3mph /  16.6km/h 97% 0in /  0.0mm
16:53 46.6 °F /  8.1 °C 45.7 °F /  7.6 °C 30in /  1016.8hPa SSW 7.6mph /  12.2km/h 10.7mph /  17.2km/h 97% 0in /  0.0mm
16:58 46.6 °F /  8.1 °C 45.7 °F /  7.6 °C 30in /  1016.8hPa SSE 8.5mph /  13.7km/h 10.7mph /  17.2km/h 97% 0in /  0.0mm
17:03 46.6 °F /  8.1 °C 45.7 °F /  7.6 °C 30in /  1016.8hPa South 7.6mph /  12.2km/h 11mph /  17.7km/h 97% 0in /  0.0mm
17:08 46.6 °F /  8.1 °C 45.3 °F /  7.4 °C 30in /  1016.1hPa SW 5.8mph /  9.3km/h 11mph /  17.7km/h 96% 0in /  0.0mm
17:13 46.6 °F /  8.1 °C 45.3 °F /  7.4 °C 30in /  1016.1hPa SW 3.1mph /  5.0km/h 11mph /  17.7km/h 96% 0in /  0.0mm
17:16 46.6 °F /  8.1 °C 45.3 °F /  7.4 °C 30in /  1016.1hPa SW 3.1mph /  5.0km/h 11mph /  17.7km/h 96% 0in /  0.0mm
17:21 46.6 °F /  8.1 °C 45.3 °F /  7.4 °C 30in /  1016.1hPa SSW 6.5mph /  10.5km/h 9.6mph /  15.4km/h 96% 0in /  0.0mm
17:26 46.6 °F /  8.1 °C 45.3 °F /  7.4 °C 30in /  1016.8hPa SSW 10.5mph /  16.9km/h 10.5mph /  16.9km/h 96% 0in /  0.0mm
17:31 46.6 °F /  8.1 °C 45.7 °F /  7.6 °C 30in /  1016.8hPa WSW 6mph /  9.7km/h 10.7mph /  17.2km/h 96% 0in /  0.0mm
17:36 46.6 °F /  8.1 °C 45.7 °F /  7.6 °C 30in /  1016.8hPa SW 8.1mph /  13.0km/h 11mph /  17.7km/h 96% 0in /  0.0mm
17:41 46.6 °F /  8.1 °C 45.7 °F /  7.6 °C 30in /  1016.8hPa SSW 4.9mph /  7.9km/h 11mph /  17.7km/h 96% 0in /  0.0mm
17:46 46.6 °F /  8.1 °C 45.3 °F /  7.4 °C 30in /  1016.8hPa SSW 6.3mph /  10.1km/h 7.4mph /  11.9km/h 96% 0in /  0.0mm
17:51 46.6 °F /  8.1 °C 45.3 °F /  7.4 °C 30in /  1016.8hPa SSW 8.1mph /  13.0km/h 9.8mph /  15.8km/h 96% 0in /  0.0mm
17:56 46.6 °F /  8.1 °C 45.3 °F /  7.4 °C 30in /  1016.1hPa SSW 6.9mph /  11.1km/h 9.8mph /  15.8km/h 96% 0in /  0.0mm
18:01 46.6 °F /  8.1 °C 45.3 °F /  7.4 °C 30in /  1016.1hPa SW 7.4mph /  11.9km/h 10.7mph /  17.2km/h 95% 0in /  0.0mm
18:11 46.6 °F /  8.1 °C 45.1 °F /  7.3 °C 30in /  1016.1hPa SSW 6mph /  9.7km/h 10.5mph /  16.9km/h 95% 0in /  0.0mm
18:16 46.6 °F /  8.1 °C 45.1 °F /  7.3 °C 30in /  1016.1hPa WSW 8.7mph /  14.0km/h 9.4mph /  15.1km/h 95% 0in /  0.0mm
18:21 46.6 °F /  8.1 °C 45.1 °F /  7.3 °C 30in /  1016.1hPa SSW 8.1mph /  13.0km/h 11.4mph /  18.3km/h 95% 0in /  0.0mm
18:26 46.2 °F /  7.9 °C 45 °F /  7.2 °C 30in /  1015.1hPa SSW 4.9mph /  7.9km/h 11.4mph /  18.3km/h 95% 0in /  0.0mm
18:31 46.2 °F /  7.9 °C 45 °F /  7.2 °C 30in /  1015.1hPa South 8.5mph /  13.7km/h 11mph /  17.7km/h 95% 0in /  0.0mm
18:36 46.2 °F /  7.9 °C 45 °F /  7.2 °C 30in /  1015.1hPa SSW 7.6mph /  12.2km/h 11mph /  17.7km/h 95% 0in /  0.0mm
18:41 46.2 °F /  7.9 °C 45 °F /  7.2 °C 29.9in /  1014.1hPa SSW 7.6mph /  12.2km/h 10.5mph /  16.9km/h 95% 0in /  0.0mm
18:46 46.2 °F /  7.9 °C 45 °F /  7.2 °C 29.9in /  1014.1hPa SW 6.3mph /  10.1km/h 10.5mph /  16.9km/h 95% 0in /  0.0mm
18:51 46 °F /  7.8 °C 44.8 °F /  7.1 °C 29.9in /  1014.1hPa South 6.3mph /  10.1km/h 9.6mph /  15.4km/h 95% 0.01in /  0.3mm
18:56 46 °F /  7.8 °C 44.8 °F /  7.1 °C 30in /  1015.1hPa SSW 7.8mph /  12.6km/h 9.8mph /  15.8km/h 95% 0.01in /  0.3mm
19:01 46 °F /  7.8 °C 44.8 °F /  7.1 °C 30in /  1015.1hPa South 8.1mph /  13.0km/h 10.5mph /  16.9km/h 95% 0.02in /  0.5mm
19:06 46 °F /  7.8 °C 44.8 °F /  7.1 °C 30in /  1015.1hPa South 3.6mph /  5.8km/h 10.5mph /  16.9km/h 95% 0.02in /  0.5mm
19:11 46 °F /  7.8 °C 44.8 °F /  7.1 °C 29.9in /  1014.1hPa SSW 4.7mph /  7.6km/h 10.7mph /  17.2km/h 95% 0.02in /  0.5mm
19:16 46 °F /  7.8 °C 44.8 °F /  7.1 °C 29.9in /  1014.1hPa SSW 4.9mph /  7.9km/h 10.7mph /  17.2km/h 95% 0.02in /  0.5mm
19:21 46 °F /  7.8 °C 44.8 °F /  7.1 °C 29.9in /  1014.1hPa SSW 7.6mph /  12.2km/h 10.7mph /  17.2km/h 95% 0.02in /  0.5mm
19:26 46 °F /  7.8 °C 44.8 °F /  7.1 °C 29.9in /  1014.1hPa SSW 6.3mph /  10.1km/h 11mph /  17.7km/h 95% 0.02in /  0.5mm
19:31 46 °F /  7.8 °C 44.8 °F /  7.1 °C 29.9in /  1014.1hPa South 6mph /  9.7km/h 11mph /  17.7km/h 95% 0.02in /  0.5mm
19:36 46 °F /  7.8 °C 44.8 °F /  7.1 °C 29.9in /  1014.1hPa South 7.6mph /  12.2km/h 10.1mph /  16.3km/h 95% 0.02in /  0.5mm
19:41 46 °F /  7.8 °C 44.8 °F /  7.1 °C 29.9in /  1014.1hPa SSW 6.5mph /  10.5km/h 11mph /  17.7km/h 95% 0.02in /  0.5mm
19:46 46 °F /  7.8 °C 44.8 °F /  7.1 °C 29.9in /  1014.1hPa South 9.8mph /  15.8km/h 11mph /  17.7km/h 95% 0.01in /  0.3mm
19:51 46 °F /  7.8 °C 44.8 °F /  7.1 °C 29.9in /  1014.1hPa SSW 4.3mph /  6.9km/h 10.7mph /  17.2km/h 95% 0.03in /  0.8mm
19:56 46 °F /  7.8 °C 44.8 °F /  7.1 °C 29.9in /  1013.1hPa SSW 5.6mph /  9.0km/h 10.1mph /  16.3km/h 95% 0.03in /  0.8mm
20:01 46 °F /  7.8 °C 44.8 °F /  7.1 °C 29.9in /  1013.1hPa SSW 6mph /  9.7km/h 10.1mph /  16.3km/h 95% 0.01in /  0.3mm
20:06 46 °F /  7.8 °C 44.8 °F /  7.1 °C 29.9in /  1013.1hPa SSW 5.8mph /  9.3km/h 11mph /  17.7km/h 95% 0.01in /  0.3mm
20:11 46 °F /  7.8 °C 44.8 °F /  7.1 °C 29.9in /  1013.1hPa SSW 6.3mph /  10.1km/h 11mph /  17.7km/h 95% 0.01in /  0.3mm
20:16 46 °F /  7.8 °C 44.8 °F /  7.1 °C 29.9in /  1013.1hPa South 6.5mph /  10.5km/h 9.8mph /  15.8km/h 95% 0.01in /  0.3mm
20:21 46 °F /  7.8 °C 44.8 °F /  7.1 °C 29.9in /  1013.1hPa South 6.5mph /  10.5km/h 9.8mph /  15.8km/h 95% 0.03in /  0.8mm
20:26 46 °F /  7.8 °C 44.8 °F /  7.1 °C 29.9in /  1013.1hPa WSW 6mph /  9.7km/h 10.1mph /  16.3km/h 95% 0.03in /  0.8mm
20:31 46 °F /  7.8 °C 44.8 °F /  7.1 °C 29.9in /  1013.1hPa SW 6mph /  9.7km/h 12.1mph /  19.5km/h 95% 0.03in /  0.8mm
20:36 46.2 °F /  7.9 °C 45 °F /  7.2 °C 29.9in /  1013.1hPa South 5.4mph /  8.7km/h 12.1mph /  19.5km/h 95% 0.04in /  1.0mm
20:41 46 °F /  7.8 °C 44.8 °F /  7.1 °C 29.9in /  1012.1hPa SSW 5.6mph /  9.0km/h 12.8mph /  20.6km/h 95% 0.04in /  1.0mm
20:46 46 °F /  7.8 °C 44.8 °F /  7.1 °C 29.9in /  1012.1hPa SSW 4.3mph /  6.9km/h 12.8mph /  20.6km/h 95% 0.04in /  1.0mm
20:51 46 °F /  7.8 °C 44.8 °F /  7.1 °C 29.9in /  1012.1hPa SW 6mph /  9.7km/h 9.6mph /  15.4km/h 95% 0.03in /  0.8mm
20:56 46 °F /  7.8 °C 44.8 °F /  7.1 °C 29.9in /  1011.1hPa WSW 8.1mph /  13.0km/h 10.1mph /  16.3km/h 95% 0.04in /  1.0mm
21:01 46 °F /  7.8 °C 44.8 °F /  7.1 °C 29.9in /  1011.1hPa South 4mph /  6.4km/h 12.1mph /  19.5km/h 95% 0.04in /  1.0mm
21:06 46 °F /  7.8 °C 44.8 °F /  7.1 °C 29.9in /  1011.1hPa South 5.8mph /  9.3km/h 12.3mph /  19.8km/h 95% 0.06in /  1.5mm
21:11 46 °F /  7.8 °C 44.8 °F /  7.1 °C 29.9in /  1011.1hPa SSW 9.2mph /  14.8km/h 12.3mph /  19.8km/h 95% 0.06in /  1.5mm
21:16 46 °F /  7.8 °C 44.8 °F /  7.1 °C 29.9in /  1011.1hPa SSW 8.5mph /  13.7km/h 12.3mph /  19.8km/h 95% 0.07in /  1.8mm
21:21 46 °F /  7.8 °C 44.8 °F /  7.1 °C 29.9in /  1011.1hPa SW 8.1mph /  13.0km/h 14.1mph /  22.7km/h 95% 0.06in /  1.5mm
21:26 46 °F /  7.8 °C 44.8 °F /  7.1 °C 29.9in /  1011.1hPa SSW 6.7mph /  10.8km/h 14.1mph /  22.7km/h 95% 0.07in /  1.8mm
21:31 46 °F /  7.8 °C 44.8 °F /  7.1 °C 29.9in /  1011.1hPa SSE 13.6mph /  21.9km/h 13.6mph /  21.9km/h 95% 0.07in /  1.8mm
21:36 46 °F /  7.8 °C 44.8 °F /  7.1 °C 29.9in /  1011.1hPa South 3.8mph /  6.1km/h 13.6mph /  21.9km/h 95% 0.07in /  1.8mm
21:41 46 °F /  7.8 °C 44.8 °F /  7.1 °C 29.9in /  1011.1hPa SSW 4.9mph /  7.9km/h 12.1mph /  19.5km/h 95% 0.08in /  2.0mm
21:46 46 °F /  7.8 °C 44.8 °F /  7.1 °C 29.9in /  1011.1hPa SSW 6mph /  9.7km/h 16.1mph /  25.9km/h 95% 0.08in /  2.0mm
21:52 46 °F /  7.8 °C 44.8 °F /  7.1 °C 29.8in /  1010.0hPa SSE 7.6mph /  12.2km/h 16.1mph /  25.9km/h 95% 0.07in /  1.8mm
21:57 46 °F /  7.8 °C 44.8 °F /  7.1 °C 29.8in /  1010.0hPa SSW 7.6mph /  12.2km/h 13mph /  20.9km/h 95% 0.06in /  1.5mm
22:02 46 °F /  7.8 °C 44.8 °F /  7.1 °C 29.8in /  1010.0hPa SSW 10.7mph /  17.2km/h 14.1mph /  22.7km/h 95% 0.06in /  1.5mm
22:07 45.9 °F /  7.7 °C 44.6 °F /  7.0 °C 29.8in /  1010.0hPa South 7.4mph /  11.9km/h 14.1mph /  22.7km/h 95% 0.08in /  2.0mm
22:12 45.9 °F /  7.7 °C 44.6 °F /  7.0 °C 29.8in /  1010.0hPa SSW 10.3mph /  16.6km/h 12.5mph /  20.1km/h 95% 0.08in /  2.0mm
22:17 45.9 °F /  7.7 °C 44.6 °F /  7.0 °C 29.8in /  1010.0hPa SSW 7.4mph /  11.9km/h 12.1mph /  19.5km/h 95% 0.07in /  1.8mm
22:22 45.9 °F /  7.7 °C 44.6 °F /  7.0 °C 29.8in /  1010.0hPa SSW 8.5mph /  13.7km/h 12.1mph /  19.5km/h 95% 0.08in /  2.0mm
22:32 45.9 °F /  7.7 °C 44.6 °F /  7.0 °C 29.8in /  1010.0hPa SSW 6.5mph /  10.5km/h 13.6mph /  21.9km/h 95% 0.07in /  1.8mm
22:37 45.9 °F /  7.7 °C 44.6 °F /  7.0 °C 29.8in /  1009.0hPa SW 7.8mph /  12.6km/h 12.1mph /  19.5km/h 95% 0.07in /  1.8mm
22:42 45.9 °F /  7.7 °C 44.4 °F /  6.9 °C 29.8in /  1009.0hPa SW 10.1mph /  16.3km/h 12.1mph /  19.5km/h 95% 0.06in /  1.5mm
22:47 45.9 °F /  7.7 °C 44.4 °F /  6.9 °C 29.8in /  1009.0hPa SSW 6mph /  9.7km/h 11mph /  17.7km/h 95% 0.06in /  1.5mm
22:52 45.9 °F /  7.7 °C 44.4 °F /  6.9 °C 29.8in /  1008.0hPa SSW 7.6mph /  12.2km/h 11mph /  17.7km/h 95% 0.06in /  1.5mm
22:57 45.9 °F /  7.7 °C 44.4 °F /  6.9 °C 29.8in /  1008.0hPa SW 10.5mph /  16.9km/h 11mph /  17.7km/h 95% 0.06in /  1.5mm
23:02 45.9 °F /  7.7 °C 44.4 °F /  6.9 °C 29.8in /  1008.0hPa WSW 7.8mph /  12.6km/h 11mph /  17.7km/h 95% 0.06in /  1.5mm
23:07 45.9 °F /  7.7 °C 44.4 °F /  6.9 °C 29.8in /  1009.0hPa SSW 6mph /  9.7km/h 12.3mph /  19.8km/h 95% 0.03in /  0.8mm
23:12 45.9 °F /  7.7 °C 44.4 °F /  6.9 °C 29.8in /  1009.0hPa SSW 6.5mph /  10.5km/h 12.3mph /  19.8km/h 95% 0.04in /  1.0mm
23:17 45.9 °F /  7.7 °C 44.6 °F /  7.0 °C 29.8in /  1009.0hPa SW 8.7mph /  14.0km/h 12.1mph /  19.5km/h 95% 0.04in /  1.0mm
23:22 45.9 °F /  7.7 °C 44.6 °F /  7.0 °C 29.8in /  1009.0hPa SW 6.3mph /  10.1km/h 12.8mph /  20.6km/h 95% 0.02in /  0.5mm
23:27 45.9 °F /  7.7 °C 44.6 °F /  7.0 °C 29.8in /  1009.0hPa WSW 6mph /  9.7km/h 12.8mph /  20.6km/h 95% 0.02in /  0.5mm
23:32 45.9 °F /  7.7 °C 45 °F /  7.2 °C 29.8in /  1009.0hPa WSW 10.3mph /  16.6km/h 13.9mph /  22.4km/h 96% 0.02in /  0.5mm
23:37 45.9 °F /  7.7 °C 45 °F /  7.2 °C 29.8in /  1008.0hPa WSW 8.1mph /  13.0km/h 13.9mph /  22.4km/h 96% 0.01in /  0.3mm
23:42 45.9 °F /  7.7 °C 45 °F /  7.2 °C 29.8in /  1008.0hPa West 8.7mph /  14.0km/h 10.7mph /  17.2km/h 96% 0.01in /  0.3mm
23:47 46 °F /  7.8 °C 44.8 °F /  7.1 °C 29.8in /  1008.0hPa WNW 7.2mph /  11.6km/h 10.7mph /  17.2km/h 95% 0.01in /  0.3mm
23:52 45.1 °F /  7.3 °C 43.9 °F /  6.6 °C 29.8in /  1009.0hPa NNE 3.6mph /  5.8km/h 12.3mph /  19.8km/h 95% 0.07in /  1.8mm
23:57 44.8 °F /  7.1 °C 43.3 °F /  6.3 °C 29.8in /  1009.0hPa NW 4mph /  6.4km/h 12.3mph /  19.8km/h 95% 0.07in /  1.8mm
Données Historique de Météo Turbie

Mise a jour : 24/05/2018 23:04:22
Généré par Cumulus 1.9.4 (1099)